Budleigh Salterton, United Kingdom
Current Conditions -  °F | °C
As of 1:20 AM on Saturday 29 Nov 2014 (Local Time) from EGTE Reporting Station
Clear Clear  
Wind Chill:   Ceiling: Unl
Heat Index:   Visibility: 6mi
Dew Point:   Wind: 5mph
Humidity: 93%   Direction: 10°N
Pressure: 29.65"   Gusts: NA
Location:  50.63°N, 3.32°W
Report Text: EGTE 290120Z 01004KT 340V050 CAVOK 09/08 Q1004
Loading
Personal Weather Stations






























Interactive Weather Map New forecast layout! Learn more

10-Day Weather Forecast

Advertisements
Track Severe Weather on mobile